Time;durP1;ratioP1;P1;durP2;ratioP2;P2;SDS_P1;SDS_P2;PMS_P1;PMS_P2;Temp;Humidity;BMP_temperature;BMP_pressure;BME280_temperature;BME280_humidity;BME280_pressure;Samples;Min_cycle;Max_cycle;Signal;HPM_P1;HPM_P2
2024/04/10 00:02:09;;;;;;;0.30;0.30;;;;;;;;;;6827380;26;20458;-80
2024/04/10 00:05:11;;;;;;;0.97;0.20;;;;;;;;;;6850101;26;20550;-80
2024/04/10 00:08:11;;;;;;;0.85;0.32;;;;;;;;;;6859759;25;20001;-79
2024/04/10 00:11:11;;;;;;;0.77;0.30;;;;;;;;;;6860154;26;20465;-79
2024/04/10 00:14:12;;;;;;;0.20;0.20;;;;;;;;;;6861466;26;20434;-79
2024/04/10 00:17:12;;;;;;;2.23;0.37;;;;;;;;;;6855326;25;20422;-79
2024/04/10 00:20:12;;;;;;;0.30;0.20;;;;;;;;;;6859542;26;19989;-80
2024/04/10 00:23:12;;;;;;;0.55;0.20;;;;;;;;;;6858412;26;20012;-79
2024/04/10 00:26:13;;;;;;;1.60;0.30;;;;;;;;;;6856814;26;19993;-79
2024/04/10 00:29:13;;;;;;;0.20;0.20;;;;;;;;;;6828339;26;20012;-76
2024/04/10 00:32:14;;;;;;;0.33;0.30;;;;;;;;;;6857829;25;20346;-76
2024/04/10 00:35:14;;;;;;;1.05;0.25;;;;;;;;;;6827202;26;20413;-75
2024/04/10 00:38:15;;;;;;;0.43;0.20;;;;;;;;;;6857571;26;20001;-76
2024/04/10 00:41:15;;;;;;;0.10;0.10;;;;;;;;;;6860458;26;19998;-76
2024/04/10 00:44:15;;;;;;;1.43;0.20;;;;;;;;;;6860849;26;20000;-76
2024/04/10 00:47:16;;;;;;;0.17;0.17;;;;;;;;;;6857487;26;19997;-76
2024/04/10 00:50:16;;;;;;;0.20;0.20;;;;;;;;;;6857596;25;20462;-76
2024/04/10 00:53:16;;;;;;;0.20;0.20;;;;;;;;;;6859217;26;19989;-76
2024/04/10 00:56:17;;;;;;;0.25;0.20;;;;;;;;;;6851922;26;20026;-76
2024/04/10 00:59:17;;;;;;;0.30;0.30;;;;;;;;;;6827863;26;20028;-76
2024/04/10 01:02:18;;;;;;;0.20;0.20;;;;;;;;;;6860800;26;19994;-76
2024/04/10 01:05:18;;;;;;;1.37;0.20;;;;;;;;;;6822635;25;20449;-80
2024/04/10 01:08:18;;;;;;;0.20;0.20;;;;;;;;;;6859151;26;19989;-76
2024/04/10 01:11:18;;;;;;;0.40;0.30;;;;;;;;;;6859263;26;20278;-75
2024/04/10 01:14:19;;;;;;;0.30;0.30;;;;;;;;;;6858154;26;20355;-76
2024/04/10 01:17:19;;;;;;;0.27;0.20;;;;;;;;;;6860592;26;19996;-76
2024/04/10 01:20:19;;;;;;;0.30;0.30;;;;;;;;;;6854882;26;20017;-78
2024/04/10 01:23:20;;;;;;;0.20;0.20;;;;;;;;;;6815716;26;20234;-76
2024/04/10 01:26:20;;;;;;;0.30;0.20;;;;;;;;;;6852521;26;20525;-76
2024/04/10 01:29:20;;;;;;;0.13;0.13;;;;;;;;;;6853878;26;20489;-76
2024/04/10 01:32:21;;;;;;;0.20;0.20;;;;;;;;;;6858076;26;20005;-79
2024/04/10 01:35:21;;;;;;;0.93;0.20;;;;;;;;;;6852793;26;20124;-78
2024/04/10 01:38:23;;;;;;;0.20;0.20;;;;;;;;;;6855729;25;20442;-75
2024/04/10 01:43:01;;;;;;;0.20;0.20;;;;;;;;;;6833736;25;20338;-75
2024/04/10 01:46:01;;;;;;;0.20;0.20;;;;;;;;;;6837464;26;20012;-75
2024/04/10 01:49:01;;;;;;;0.63;0.20;;;;;;;;;;6831771;26;20474;-78
2024/04/10 01:52:02;;;;;;;1.70;0.30;;;;;;;;;;6836543;26;20018;-77
2024/04/10 01:55:02;;;;;;;0.90;0.30;;;;;;;;;;6833613;25;20009;-76
2024/04/10 01:58:02;;;;;;;0.50;0.30;;;;;;;;;;6837252;25;20078;-76
2024/04/10 02:01:03;;;;;;;0.30;0.30;;;;;;;;;;6835370;25;20077;-76
2024/04/10 02:04:03;;;;;;;0.25;0.17;;;;;;;;;;6832838;25;20915;-76
2024/04/10 02:07:04;;;;;;;0.20;0.20;;;;;;;;;;6836219;25;20069;-76
2024/04/10 02:10:04;;;;;;;0.73;0.22;;;;;;;;;;6831939;25;19990;-78
2024/04/10 02:13:04;;;;;;;0.40;0.40;;;;;;;;;;6834004;26;20483;-77
2024/04/10 02:16:05;;;;;;;0.33;0.33;;;;;;;;;;6837285;26;19994;-77
2024/04/10 02:19:05;;;;;;;0.20;0.20;;;;;;;;;;6829039;25;20058;-77
2024/04/10 02:22:06;;;;;;;0.37;0.37;;;;;;;;;;6832046;26;19998;-75
2024/04/10 02:25:06;;;;;;;;;;;;;;;;;;6834772;25;20095;-75
2024/04/10 02:28:06;;;;;;;0.20;0.20;;;;;;;;;;6836743;26;19931;-75
2024/04/10 02:31:07;;;;;;;0.30;0.30;;;;;;;;;;6834631;26;20478;-76
2024/04/10 02:34:07;;;;;;;0.52;0.40;;;;;;;;;;6830420;25;20009;-76
2024/04/10 02:37:07;;;;;;;0.33;0.33;;;;;;;;;;6834378;26;20010;-76
2024/04/10 02:40:08;;;;;;;0.40;0.30;;;;;;;;;;6834330;26;20024;-76
2024/04/10 02:43:09;;;;;;;;;;;;;;;;;;6837125;25;20010;-75
2024/04/10 02:46:10;;;;;;;0.30;0.30;;;;;;;;;;6836792;25;19930;-75
2024/04/10 02:49:10;;;;;;;0.63;0.40;;;;;;;;;;6832126;26;19998;-76
2024/04/10 02:52:10;;;;;;;0.30;0.30;;;;;;;;;;6824460;26;20465;-76
2024/04/10 02:55:10;;;;;;;0.70;0.40;;;;;;;;;;6811170;26;20442;-75
2024/04/10 02:58:11;;;;;;;0.37;0.37;;;;;;;;;;6813299;26;20369;-75
2024/04/10 03:01:12;;;;;;;0.30;0.30;;;;;;;;;;6805869;26;20317;-76
2024/04/10 03:04:12;;;;;;;0.38;0.38;;;;;;;;;;6813593;26;20335;-75
2024/04/10 03:07:15;;;;;;;0.20;0.20;;;;;;;;;;6812742;26;19990;-75
2024/04/10 03:10:17;;;;;;;0.98;0.28;;;;;;;;;;6810053;26;19994;-75
2024/04/10 03:13:17;;;;;;;0.32;0.32;;;;;;;;;;6807015;26;19994;-75
2024/04/10 03:16:18;;;;;;;0.30;0.30;;;;;;;;;;6813438;26;20066;-75
2024/04/10 03:19:19;;;;;;;0.33;0.20;;;;;;;;;;6812720;26;19998;-76
2024/04/10 03:22:20;;;;;;;0.50;0.40;;;;;;;;;;6813073;26;20486;-75
2024/04/10 03:25:20;;;;;;;0.30;0.30;;;;;;;;;;6812960;26;20051;-75
2024/04/10 03:28:20;;;;;;;0.30;0.30;;;;;;;;;;6815590;26;19995;-75
2024/04/10 03:31:21;;;;;;;0.30;0.30;;;;;;;;;;6816582;26;20455;-75
2024/04/10 03:34:21;;;;;;;0.22;0.20;;;;;;;;;;6812672;26;20459;-75
2024/04/10 03:37:21;;;;;;;1.00;0.30;;;;;;;;;;6809431;26;20006;-79
2024/04/10 03:40:22;;;;;;;1.13;0.30;;;;;;;;;;6811529;26;20442;-76
2024/04/10 03:43:23;;;;;;;0.50;0.30;;;;;;;;;;6816257;26;20499;-75
2024/04/10 03:46:23;;;;;;;0.30;0.30;;;;;;;;;;6815498;26;20070;-75
2024/04/10 03:49:24;;;;;;;0.20;0.13;;;;;;;;;;6814483;26;20041;-75
2024/04/10 03:52:24;;;;;;;0.43;0.20;;;;;;;;;;6814704;26;20006;-75
2024/04/10 03:55:24;;;;;;;0.30;0.30;;;;;;;;;;6807053;26;20050;-75
2024/04/10 03:58:24;;;;;;;0.40;0.30;;;;;;;;;;6807043;26;20347;-75
2024/04/10 04:01:25;;;;;;;0.20;0.20;;;;;;;;;;6814074;26;20475;-76
2024/04/10 04:04:25;;;;;;;0.77;0.30;;;;;;;;;;6807264;26;20446;-75
2024/04/10 04:07:25;;;;;;;0.30;0.20;;;;;;;;;;6809687;26;20497;-75
2024/04/10 04:10:26;;;;;;;0.20;0.20;;;;;;;;;;6810079;26;20347;-76
2024/04/10 04:13:26;;;;;;;0.20;0.20;;;;;;;;;;6815507;26;20073;-76
2024/04/10 04:16:26;;;;;;;0.77;0.30;;;;;;;;;;6809274;26;20044;-76
2024/04/10 04:19:27;;;;;;;0.30;0.30;;;;;;;;;;6812847;26;20005;-76
2024/04/10 04:22:27;;;;;;;0.30;0.30;;;;;;;;;;6811300;26;20005;-79
2024/04/10 04:25:29;;;;;;;0.40;0.30;;;;;;;;;;6807774;26;20014;-77
2024/04/10 04:28:29;;;;;;;0.93;0.70;;;;;;;;;;6808170;26;19998;-75
2024/04/10 04:31:30;;;;;;;1.70;0.50;;;;;;;;;;6812725;26;20376;-75
2024/04/10 04:34:30;;;;;;;0.57;0.40;;;;;;;;;;6810349;26;20421;-75
2024/04/10 04:37:30;;;;;;;0.30;0.30;;;;;;;;;;6810570;26;20081;-77
2024/04/10 04:40:31;;;;;;;0.20;0.20;;;;;;;;;;6811954;26;20038;-76
2024/04/10 04:43:31;;;;;;;1.63;1.10;;;;;;;;;;6813990;26;20335;-75
2024/04/10 04:46:31;;;;;;;0.83;0.80;;;;;;;;;;6815139;26;20485;-76
2024/04/10 04:49:31;;;;;;;2.20;0.60;;;;;;;;;;6801424;26;20362;-75
2024/04/10 04:52:31;;;;;;;0.40;0.40;;;;;;;;;;6778374;26;20018;-78
2024/04/10 04:55:32;;;;;;;0.30;0.30;;;;;;;;;;6790238;26;20042;-78
2024/04/10 04:58:32;;;;;;;0.30;0.30;;;;;;;;;;6798721;26;20340;-77
2024/04/10 05:01:33;;;;;;;0.30;0.30;;;;;;;;;;6769964;26;20368;-76
2024/04/10 05:07:52;;;;;;;0.32;0.32;;;;;;;;;;6812253;26;20014;-76
2024/04/10 05:10:53;;;;;;;0.28;0.20;;;;;;;;;;6813952;26;20013;-75
2024/04/10 05:13:53;;;;;;;0.40;0.30;;;;;;;;;;6783588;26;20019;-75
2024/04/10 05:16:53;;;;;;;0.30;0.30;;;;;;;;;;6776421;26;20013;-74
2024/04/10 05:19:55;;;;;;;0.37;0.30;;;;;;;;;;6808519;26;19998;-81
2024/04/10 05:22:55;;;;;;;0.30;0.20;;;;;;;;;;6767658;26;19999;-80
2024/04/10 05:26:02;;;;;;;0.43;0.20;;;;;;;;;;6798236;26;20334;-82
2024/04/10 05:29:02;;;;;;;0.25;0.25;;;;;;;;;;6783967;26;19999;-80
2024/04/10 05:32:03;;;;;;;0.20;0.20;;;;;;;;;;6769497;26;20074;-79
2024/04/10 05:35:07;;;;;;;0.40;0.30;;;;;;;;;;6784335;26;20059;-80
2024/04/10 05:38:07;;;;;;;0.55;0.30;;;;;;;;;;6802836;26;20002;-81
2024/04/10 05:41:08;;;;;;;0.30;0.30;;;;;;;;;;6784776;26;20579;-80
2024/04/10 05:44:08;;;;;;;0.30;0.30;;;;;;;;;;6809913;26;20609;-81
2024/04/10 05:47:08;;;;;;;0.30;0.30;;;;;;;;;;6769189;26;20344;-80
2024/04/10 05:50:09;;;;;;;0.40;0.30;;;;;;;;;;6791954;26;20492;-79
2024/04/10 05:53:09;;;;;;;0.40;0.32;;;;;;;;;;6777272;26;20452;-79
2024/04/10 05:56:09;;;;;;;0.37;0.30;;;;;;;;;;6797215;26;20097;-78
2024/04/10 05:59:10;;;;;;;0.20;0.20;;;;;;;;;;6799995;26;20068;-79
2024/04/10 06:02:10;;;;;;;1.27;0.93;;;;;;;;;;6800598;26;20031;-80
2024/04/10 06:05:10;;;;;;;1.33;0.70;;;;;;;;;;6775705;26;19987;-81
2024/04/10 06:08:11;;;;;;;0.70;0.47;;;;;;;;;;6812144;26;20427;-81
2024/04/10 06:11:11;;;;;;;0.60;0.40;;;;;;;;;;6811620;26;20002;-81
2024/04/10 06:14:12;;;;;;;0.70;0.32;;;;;;;;;;6813609;26;19998;-81
2024/04/10 06:17:12;;;;;;;0.37;0.37;;;;;;;;;;6813828;26;20069;-81
2024/04/10 06:20:13;;;;;;;0.30;0.30;;;;;;;;;;6802410;26;20464;-81
2024/04/10 06:23:14;;;;;;;0.40;0.40;;;;;;;;;;6795299;26;20435;-79
2024/04/10 06:26:14;;;;;;;0.30;0.30;;;;;;;;;;6811297;26;20625;-79
2024/04/10 06:29:14;;;;;;;0.27;0.20;;;;;;;;;;6817124;26;20370;-81
2024/04/10 06:32:15;;;;;;;0.60;0.37;;;;;;;;;;6791566;26;20476;-82
2024/04/10 06:35:15;;;;;;;0.30;0.30;;;;;;;;;;6772149;26;20443;-81
2024/04/10 06:38:15;;;;;;;0.30;0.30;;;;;;;;;;6770913;26;20001;-83
2024/04/10 06:41:16;;;;;;;0.30;0.30;;;;;;;;;;6784582;26;20372;-81
2024/04/10 06:44:16;;;;;;;0.33;0.23;;;;;;;;;;6784688;26;20454;-80
2024/04/10 06:47:16;;;;;;;0.33;0.27;;;;;;;;;;6803014;26;19990;-78
2024/04/10 06:50:16;;;;;;;0.63;0.30;;;;;;;;;;6814275;26;20390;-76
2024/04/10 06:53:17;;;;;;;0.50;0.40;;;;;;;;;;6796421;26;19991;-79
2024/04/10 06:56:17;;;;;;;0.40;0.40;;;;;;;;;;6781438;26;19994;-79
2024/04/10 06:59:18;;;;;;;0.30;0.30;;;;;;;;;;6794402;26;20006;-79
2024/04/10 07:02:18;;;;;;;0.30;0.30;;;;;;;;;;6782502;26;20007;-79
2024/04/10 07:05:20;;;;;;;0.57;0.40;;;;;;;;;;6770557;26;20002;-79
2024/04/10 07:08:20;;;;;;;0.30;0.30;;;;;;;;;;6770819;26;19995;-81
2024/04/10 07:11:24;;;;;;;0.20;0.20;;;;;;;;;;6773293;26;20520;-80
2024/04/10 07:14:24;;;;;;;0.40;0.30;;;;;;;;;;6795306;26;19995;-81
2024/04/10 07:17:25;;;;;;;0.93;0.30;;;;;;;;;;6816315;26;19994;-82
2024/04/10 07:20:26;;;;;;;0.30;0.30;;;;;;;;;;6804157;26;20010;-80
2024/04/10 07:23:27;;;;;;;0.50;0.32;;;;;;;;;;6815832;26;20013;-80
2024/04/10 07:26:27;;;;;;;0.57;0.30;;;;;;;;;;6807616;26;20034;-82
2024/04/10 07:29:28;;;;;;;0.65;0.30;;;;;;;;;;6816132;26;20039;-79
2024/04/10 07:32:28;;;;;;;;;;;;;;;;;;6794408;26;19999;-81
2024/04/10 07:35:29;;;;;;;0.35;0.30;;;;;;;;;;6790784;26;19931;-79
2024/04/10 07:38:29;;;;;;;0.40;0.40;;;;;;;;;;6796130;26;20036;-78
2024/04/10 07:41:29;;;;;;;2.57;0.83;;;;;;;;;;6804860;26;20002;-78
2024/04/10 07:44:29;;;;;;;1.00;0.67;;;;;;;;;;6798467;26;19994;-78
2024/04/10 07:47:30;;;;;;;0.70;0.50;;;;;;;;;;6802829;26;19998;-82
2024/04/10 07:50:30;;;;;;;0.67;0.40;;;;;;;;;;6792550;26;19998;-78
2024/04/10 07:53:31;;;;;;;0.98;0.40;;;;;;;;;;6812324;26;20527;-79
2024/04/10 07:56:31;;;;;;;;;;;;;;;;;;6792376;26;20067;-78
2024/04/10 07:59:32;;;;;;;0.40;0.32;;;;;;;;;;6768512;26;19949;-79
2024/04/10 08:02:32;;;;;;;0.40;0.30;;;;;;;;;;6768539;26;20556;-79
2024/04/10 08:05:32;;;;;;;0.50;0.30;;;;;;;;;;6768156;26;20542;-81
2024/04/10 08:08:33;;;;;;;0.30;0.30;;;;;;;;;;6797771;26;20468;-79
2024/04/10 08:11:33;;;;;;;1.23;0.40;;;;;;;;;;6779731;26;19999;-80
2024/04/10 08:14:34;;;;;;;0.32;0.32;;;;;;;;;;6418759;25;10000043;-79
2024/04/10 08:17:38;;;;;;;0.38;0.38;;;;;;;;;;6774302;26;20015;-80
2024/04/10 08:20:38;;;;;;;1.00;0.45;;;;;;;;;;6794602;26;20005;-78
2024/04/10 08:23:39;;;;;;;0.77;0.40;;;;;;;;;;6813246;26;20515;-78
2024/04/10 08:26:40;;;;;;;0.73;0.40;;;;;;;;;;6790017;26;20006;-79
2024/04/10 08:29:40;;;;;;;1.10;0.40;;;;;;;;;;6770979;26;20002;-77
2024/04/10 08:32:41;;;;;;;0.40;0.40;;;;;;;;;;6779665;26;20469;-79
2024/04/10 08:35:42;;;;;;;0.37;0.37;;;;;;;;;;6790859;26;20355;-80
2024/04/10 08:38:43;;;;;;;0.32;0.30;;;;;;;;;;6787137;26;20009;-79
2024/04/10 08:41:43;;;;;;;0.65;0.40;;;;;;;;;;6794353;26;20002;-78
2024/04/10 08:44:43;;;;;;;0.38;0.38;;;;;;;;;;6808591;26;20007;-80
2024/04/10 08:47:45;;;;;;;0.63;0.40;;;;;;;;;;6797190;26;20455;-80
2024/04/10 08:50:45;;;;;;;;;;;;;;;;;;6814226;26;20009;-74
2024/04/10 08:53:45;;;;;;;0.20;0.20;;;;;;;;;;6773228;26;19956;-75
2024/04/10 08:56:46;;;;;;;0.60;0.30;;;;;;;;;;6786614;26;20543;-74
2024/04/10 08:59:46;;;;;;;1.30;0.30;;;;;;;;;;6778721;26;20430;-74
2024/04/10 09:02:46;;;;;;;0.30;0.30;;;;;;;;;;6802116;26;19999;-74
2024/04/10 09:05:47;;;;;;;0.23;0.23;;;;;;;;;;6793688;26;20026;-74
2024/04/10 09:08:57;;;;;;;0.87;0.40;;;;;;;;;;6811714;26;20455;-75
2024/04/10 09:11:57;;;;;;;0.68;0.32;;;;;;;;;;6795601;26;19998;-74
2024/04/10 09:15:01;;;;;;;0.30;0.30;;;;;;;;;;6801580;26;19991;-76
2024/04/10 09:18:01;;;;;;;1.27;0.50;;;;;;;;;;6775110;26;20002;-74
2024/04/10 09:21:07;;;;;;;0.43;0.33;;;;;;;;;;6811096;26;20443;-78
2024/04/10 09:24:09;;;;;;;0.40;0.30;;;;;;;;;;6806481;26;20002;-74
2024/04/10 09:27:09;;;;;;;0.35;0.30;;;;;;;;;;6785396;26;20018;-75
2024/04/10 09:30:10;;;;;;;0.63;0.50;;;;;;;;;;6813011;26;20417;-75
2024/04/10 09:33:11;;;;;;;1.25;0.43;;;;;;;;;;6813233;26;20349;-74
2024/04/10 09:36:11;;;;;;;0.63;0.50;;;;;;;;;;6779072;26;20048;-74
2024/04/10 09:39:12;;;;;;;0.80;0.47;;;;;;;;;;6772728;26;20009;-74
2024/04/10 09:42:18;;;;;;;0.40;0.40;;;;;;;;;;6812711;26;20364;-75
2024/04/10 09:45:22;;;;;;;0.80;0.45;;;;;;;;;;6804373;26;20013;-75
2024/04/10 09:48:25;;;;;;;0.70;0.50;;;;;;;;;;6785411;26;20038;-74
2024/04/10 09:51:26;;;;;;;0.90;0.47;;;;;;;;;;6803545;26;19994;-74
2024/04/10 09:54:27;;;;;;;0.40;0.40;;;;;;;;;;6793651;26;20050;-74
2024/04/10 09:57:29;;;;;;;0.73;0.50;;;;;;;;;;6806634;26;19997;-75
2024/04/10 10:00:29;;;;;;;;;;;;;;;;;;6782953;26;20006;-74
2024/04/10 10:03:29;;;;;;;1.17;0.30;;;;;;;;;;6771103;26;19925;-74
2024/04/10 10:06:31;;;;;;;0.50;0.50;;;;;;;;;;6807824;26;20555;-74
2024/04/10 10:09:31;;;;;;;;;;;;;;;;;;6797723;26;20419;-76
2024/04/10 10:12:31;;;;;;;0.73;0.40;;;;;;;;;;6798791;26;20430;-75
2024/04/10 10:15:31;;;;;;;2.70;0.30;;;;;;;;;;6801146;26;20012;-76
2024/04/10 10:18:32;;;;;;;0.47;0.40;;;;;;;;;;6804920;26;20462;-75
2024/04/10 10:21:32;;;;;;;0.40;0.40;;;;;;;;;;6817438;26;20502;-75
2024/04/10 10:24:33;;;;;;;0.40;0.40;;;;;;;;;;6813721;26;19986;-78
2024/04/10 10:27:33;;;;;;;0.60;0.50;;;;;;;;;;6816178;26;19990;-75
2024/04/10 10:30:33;;;;;;;0.90;0.50;;;;;;;;;;6815996;26;20327;-77
2024/04/10 10:33:34;;;;;;;0.63;0.40;;;;;;;;;;6779238;26;20372;-76
2024/04/10 10:36:35;;;;;;;0.40;0.40;;;;;;;;;;6787573;26;20001;-75
2024/04/10 10:39:41;;;;;;;0.40;0.40;;;;;;;;;;6788371;26;20348;-75
2024/04/10 10:42:41;;;;;;;0.30;0.30;;;;;;;;;;6804010;26;20003;-75
2024/04/10 10:45:42;;;;;;;0.40;0.30;;;;;;;;;;6795288;26;20095;-77
2024/04/10 10:48:42;;;;;;;0.40;0.40;;;;;;;;;;6807129;26;20454;-77
2024/04/10 10:51:42;;;;;;;0.43;0.43;;;;;;;;;;6778317;26;20446;-77
2024/04/10 10:54:43;;;;;;;0.40;0.30;;;;;;;;;;6771457;26;20253;-75
2024/04/10 10:57:43;;;;;;;0.37;0.37;;;;;;;;;;6772150;26;20463;-75
2024/04/10 11:00:43;;;;;;;0.40;0.40;;;;;;;;;;6772356;26;20003;-75
2024/04/10 11:03:43;;;;;;;0.97;0.60;;;;;;;;;;6771132;26;20021;-80
2024/04/10 11:06:44;;;;;;;0.60;0.40;;;;;;;;;;6801013;26;20040;-75
2024/04/10 11:09:44;;;;;;;0.40;0.40;;;;;;;;;;6777209;26;20331;-74
2024/04/10 11:12:44;;;;;;;0.30;0.30;;;;;;;;;;6782390;26;20649;-74
2024/04/10 11:15:50;;;;;;;0.40;0.30;;;;;;;;;;6783117;26;20007;-76
2024/04/10 11:18:51;;;;;;;0.50;0.40;;;;;;;;;;6769918;26;20067;-76
2024/04/10 11:21:51;;;;;;;0.40;0.30;;;;;;;;;;6777671;26;20403;-77
2024/04/10 11:24:52;;;;;;;0.70;0.37;;;;;;;;;;6788309;26;20031;-75
2024/04/10 11:27:52;;;;;;;1.77;0.43;;;;;;;;;;6813731;26;20348;-75
2024/04/10 11:30:52;;;;;;;0.93;0.30;;;;;;;;;;6817403;26;20426;-75
2024/04/10 11:33:53;;;;;;;0.30;0.30;;;;;;;;;;6805061;26;20482;-75
2024/04/10 11:36:53;;;;;;;0.20;0.20;;;;;;;;;;6787441;26;19990;-78
2024/04/10 11:39:53;;;;;;;0.50;0.10;;;;;;;;;;6783181;26;19995;-77
2024/04/10 11:42:54;;;;;;;1.05;0.28;;;;;;;;;;6801282;26;19998;-77
2024/04/10 11:45:54;;;;;;;0.20;0.20;;;;;;;;;;6808564;26;20002;-77
2024/04/10 11:48:54;;;;;;;0.80;0.20;;;;;;;;;;6811232;26;20001;-78
2024/04/10 11:51:55;;;;;;;0.53;0.20;;;;;;;;;;6796088;26;20013;-79
2024/04/10 11:54:56;;;;;;;0.30;0.10;;;;;;;;;;6805798;26;19998;-76
2024/04/10 11:57:56;;;;;;;1.00;0.20;;;;;;;;;;6787812;26;19999;-76
2024/04/10 12:00:56;;;;;;;0.13;0.10;;;;;;;;;;6804279;26;20358;-76
2024/04/10 12:03:57;;;;;;;0.20;0.10;;;;;;;;;;6814855;26;20371;-76
2024/04/10 12:06:57;;;;;;;0.10;0.10;;;;;;;;;;6801716;26;20017;-76
2024/04/10 12:09:57;;;;;;;0.30;0.20;;;;;;;;;;6813083;26;20007;-76
2024/04/10 12:12:58;;;;;;;0.10;0.10;;;;;;;;;;6785678;26;20002;-76
2024/04/10 12:15:58;;;;;;;0.77;0.20;;;;;;;;;;6808974;26;20026;-76
2024/04/10 12:18:59;;;;;;;0.10;0.10;;;;;;;;;;6804097;26;20487;-79
2024/04/10 12:21:59;;;;;;;0.20;0.20;;;;;;;;;;6775049;26;20447;-78
2024/04/10 12:24:59;;;;;;;0.53;0.20;;;;;;;;;;6769874;26;20501;-78
2024/04/10 12:28:02;;;;;;;0.60;0.50;;;;;;;;;;6815863;26;20724;-78
2024/04/10 12:31:03;;;;;;;0.50;0.30;;;;;;;;;;6803135;26;20014;-78
2024/04/10 12:34:03;;;;;;;;;;;;;;;;;;6772544;26;19999;-79
2024/04/10 12:40:22;;;;;;;0.20;0.20;;;;;;;;;;6774024;26;20002;-78
2024/04/10 12:43:22;;;;;;;0.33;0.20;;;;;;;;;;6815508;26;20338;-78
2024/04/10 12:46:27;;;;;;;0.20;0.20;;;;;;;;;;6799972;26;20458;-78
2024/04/10 12:49:31;;;;;;;1.02;0.20;;;;;;;;;;6790303;26;20328;-78
2024/04/10 12:52:32;;;;;;;0.20;0.20;;;;;;;;;;6773086;26;20424;-80
2024/04/10 12:55:32;;;;;;;0.10;0.10;;;;;;;;;;6777717;26;20054;-78
2024/04/10 12:58:33;;;;;;;0.20;0.20;;;;;;;;;;6807512;26;20005;-78
2024/04/10 13:01:33;;;;;;;;;;;;;;;;;;6772635;26;20054;-78
2024/04/10 13:04:33;;;;;;;0.10;0.10;;;;;;;;;;6780847;26;20019;-76
2024/04/10 13:07:34;;;;;;;0.40;0.23;;;;;;;;;;6792777;26;20005;-79
2024/04/10 13:10:34;;;;;;;0.33;0.20;;;;;;;;;;6770494;26;20062;-77
2024/04/10 13:13:35;;;;;;;0.20;0.20;;;;;;;;;;6782490;26;20001;-78
2024/04/10 13:16:36;;;;;;;0.30;0.20;;;;;;;;;;6786596;26;20032;-75
2024/04/10 13:19:37;;;;;;;0.35;0.20;;;;;;;;;;6768954;26;20432;-77
2024/04/10 13:22:37;;;;;;;0.20;0.20;;;;;;;;;;6769977;26;20001;-79
2024/04/10 13:25:37;;;;;;;0.20;0.20;;;;;;;;;;6799368;26;20224;-85
2024/04/10 13:28:38;;;;;;;0.52;0.20;;;;;;;;;;6800866;26;20101;-78
2024/04/10 13:31:39;;;;;;;0.50;0.22;;;;;;;;;;6794964;26;20320;-77
2024/04/10 13:34:39;;;;;;;0.30;0.20;;;;;;;;;;6780118;26;19991;-75
2024/04/10 13:37:39;;;;;;;0.17;0.13;;;;;;;;;;6789622;26;19998;-75
2024/04/10 13:40:41;;;;;;;0.50;0.40;;;;;;;;;;6812565;26;20359;-75
2024/04/10 13:43:41;;;;;;;0.30;0.30;;;;;;;;;;6792599;26;20393;-75
2024/04/10 13:46:42;;;;;;;0.47;0.35;;;;;;;;;;6801440;26;19990;-75
2024/04/10 13:49:42;;;;;;;0.30;0.30;;;;;;;;;;6813682;26;19990;-74
2024/04/10 13:52:43;;;;;;;0.47;0.20;;;;;;;;;;6813068;26;20499;-75
2024/04/10 13:55:44;;;;;;;0.20;0.20;;;;;;;;;;6812530;26;19998;-76
2024/04/10 13:58:45;;;;;;;0.22;0.20;;;;;;;;;;6786956;26;20079;-75
2024/04/10 14:01:47;;;;;;;0.20;0.20;;;;;;;;;;6768864;26;19995;-75
2024/04/10 14:04:49;;;;;;;0.30;0.20;;;;;;;;;;6805156;26;19998;-74
2024/04/10 14:07:49;;;;;;;1.45;0.40;;;;;;;;;;6812900;26;19998;-76
2024/04/10 14:10:50;;;;;;;0.43;0.30;;;;;;;;;;6814576;26;20338;-75
2024/04/10 14:13:52;;;;;;;0.37;0.27;;;;;;;;;;6788120;26;20472;-75
2024/04/10 14:16:53;;;;;;;0.50;0.30;;;;;;;;;;6813900;26;19991;-75
2024/04/10 14:19:53;;;;;;;0.57;0.45;;;;;;;;;;6810219;26;20439;-74
2024/04/10 14:22:54;;;;;;;0.77;0.50;;;;;;;;;;6784704;26;20471;-75
2024/04/10 14:25:55;;;;;;;0.50;0.37;;;;;;;;;;6768637;26;20454;-74
2024/04/10 14:28:56;;;;;;;0.55;0.32;;;;;;;;;;6799969;26;20345;-74
2024/04/10 14:31:56;;;;;;;0.70;0.40;;;;;;;;;;6799680;26;20003;-76
2024/04/10 14:35:01;;;;;;;0.60;0.47;;;;;;;;;;6766568;26;19990;-75
2024/04/10 14:38:03;;;;;;;0.32;0.28;;;;;;;;;;6766153;26;20011;-74
2024/04/10 14:41:04;;;;;;;0.35;0.28;;;;;;;;;;6770283;26;20000;-73
2024/04/10 14:44:04;;;;;;;0.68;0.60;;;;;;;;;;6772442;26;20017;-74
2024/04/10 14:47:05;;;;;;;0.75;0.45;;;;;;;;;;6811203;26;20503;-74
2024/04/10 14:50:05;;;;;;;0.22;0.20;;;;;;;;;;6783788;26;20467;-75
2024/04/10 14:53:06;;;;;;;0.52;0.30;;;;;;;;;;6815725;26;20048;-75
2024/04/10 14:56:12;;;;;;;0.25;0.13;;;;;;;;;;6814922;26;19994;-74
2024/04/10 14:59:12;;;;;;;0.80;0.32;;;;;;;;;;6816689;26;20074;-73
2024/04/10 15:02:12;;;;;;;0.47;0.30;;;;;;;;;;6813085;26;20010;-74
2024/04/10 15:05:13;;;;;;;0.50;0.30;;;;;;;;;;6784373;26;20026;-73
2024/04/10 15:08:13;;;;;;;0.33;0.23;;;;;;;;;;6770606;26;19999;-74
2024/04/10 15:11:21;;;;;;;2.10;0.50;;;;;;;;;;6775861;26;20002;-73
2024/04/10 15:14:21;;;;;;;0.63;0.55;;;;;;;;;;6811280;26;19998;-73
2024/04/10 15:17:21;;;;;;;1.97;0.60;;;;;;;;;;6808281;26;20346;-78
2024/04/10 15:20:21;;;;;;;2.33;0.50;;;;;;;;;;6770319;26;19994;-75
2024/04/10 15:23:22;;;;;;;0.57;0.40;;;;;;;;;;6771280;26;19995;-75
2024/04/10 15:26:22;;;;;;;0.95;0.60;;;;;;;;;;6772725;26;20002;-76
2024/04/10 15:29:22;;;;;;;0.43;0.43;;;;;;;;;;6802536;26;20002;-75
2024/04/10 15:32:22;;;;;;;0.67;0.50;;;;;;;;;;6780927;26;20002;-77
2024/04/10 15:35:28;;;;;;;0.87;0.40;;;;;;;;;;6770305;26;20019;-76
2024/04/10 15:38:29;;;;;;;0.50;0.43;;;;;;;;;;6770469;26;20700;-75
2024/04/10 15:41:29;;;;;;;0.57;0.55;;;;;;;;;;6790228;26;20027;-75
2024/04/10 15:44:30;;;;;;;0.50;0.40;;;;;;;;;;6816162;26;20015;-74
2024/04/10 15:47:30;;;;;;;2.07;0.60;;;;;;;;;;6800051;26;20066;-80
2024/04/10 15:50:30;;;;;;;0.60;0.47;;;;;;;;;;6809328;26;20432;-80
2024/04/10 15:53:30;;;;;;;0.97;0.60;;;;;;;;;;6812417;26;20457;-81
2024/04/10 15:56:30;;;;;;;0.50;0.50;;;;;;;;;;6791441;26;20220;-82
2024/04/10 15:59:31;;;;;;;;;;;;;;;;;;6771393;26;19987;-81
2024/04/10 16:02:31;;;;;;;2.30;1.90;;;;;;;;;;6769651;26;20026;-80
2024/04/10 16:05:36;;;;;;;2.33;1.35;;;;;;;;;;6790744;26;20058;-81
2024/04/10 16:08:36;;;;;;;1.15;0.93;;;;;;;;;;6815223;26;20005;-80
2024/04/10 16:11:39;;;;;;;1.00;0.70;;;;;;;;;;6810072;26;20022;-81
2024/04/10 16:14:39;;;;;;;0.70;0.70;;;;;;;;;;6775183;26;20123;-81
2024/04/10 16:17:40;;;;;;;0.83;0.40;;;;;;;;;;6779992;26;20046;-81
2024/04/10 16:20:40;;;;;;;0.70;0.60;;;;;;;;;;6786183;26;20465;-81
2024/04/10 16:23:48;;;;;;;0.50;0.40;;;;;;;;;;6800839;26;20303;-81
2024/04/10 16:26:48;;;;;;;0.57;0.57;;;;;;;;;;6771243;26;20003;-81
2024/04/10 16:29:48;;;;;;;0.83;0.57;;;;;;;;;;6770225;26;20040;-75
2024/04/10 16:32:49;;;;;;;1.33;0.60;;;;;;;;;;6777980;26;20709;-75
2024/04/10 16:35:49;;;;;;;0.82;0.73;;;;;;;;;;6814790;26;20009;-75
2024/04/10 16:38:51;;;;;;;0.73;0.60;;;;;;;;;;6811570;26;20009;-75
2024/04/10 16:41:51;;;;;;;1.95;0.60;;;;;;;;;;6815036;26;20086;-75
2024/04/10 16:44:51;;;;;;;1.03;0.63;;;;;;;;;;6813797;26;20002;-75
2024/04/10 16:47:52;;;;;;;0.73;0.50;;;;;;;;;;6801475;26;20038;-77
2024/04/10 16:50:53;;;;;;;0.85;0.50;;;;;;;;;;6812857;26;20454;-75
2024/04/10 16:53:53;;;;;;;0.73;0.60;;;;;;;;;;6770785;26;20477;-75
2024/04/10 16:56:53;;;;;;;0.60;0.60;;;;;;;;;;6773364;26;20026;-76
2024/04/10 16:59:54;;;;;;;0.57;0.57;;;;;;;;;;6798687;26;19995;-86
2024/04/10 17:02:54;;;;;;;;;;;;;;;;;;6804669;26;20549;-81
2024/04/10 17:05:54;;;;;;;0.57;0.43;;;;;;;;;;6796960;26;19924;-79
2024/04/10 17:08:55;;;;;;;1.77;0.60;;;;;;;;;;6771462;26;20071;-71
2024/04/10 17:11:55;;;;;;;1.33;0.60;;;;;;;;;;6782386;26;20105;-82
2024/04/10 17:14:55;;;;;;;1.00;0.60;;;;;;;;;;6776431;26;20331;-81
2024/04/10 17:24:34;;;;;;;1.17;0.70;;;;;;;;;;6774413;26;20037;-80
2024/04/10 17:27:35;;;;;;;0.70;0.57;;;;;;;;;;6814801;26;20531;-81
2024/04/10 17:30:35;;;;;;;1.13;0.67;;;;;;;;;;6813349;26;20439;-80
2024/04/10 17:33:35;;;;;;;1.10;0.73;;;;;;;;;;6803666;26;20760;-79
2024/04/10 17:36:35;;;;;;;1.67;1.30;;;;;;;;;;6783330;26;20466;-74
2024/04/10 17:39:40;;;;;;;1.70;1.17;;;;;;;;;;6785872;26;20372;-74
2024/04/10 17:42:42;;;;;;;1.50;1.10;;;;;;;;;;6808347;26;20453;-74
2024/04/10 17:45:43;;;;;;;1.40;1.00;;;;;;;;;;6814499;26;20354;-74
2024/04/10 17:48:43;;;;;;;0.80;0.67;;;;;;;;;;6791319;26;19995;-74
2024/04/10 17:51:43;;;;;;;0.80;0.70;;;;;;;;;;6779786;26;20026;-74
2024/04/10 17:54:43;;;;;;;1.20;0.83;;;;;;;;;;6785244;26;20723;-74
2024/04/10 17:57:44;;;;;;;0.60;0.60;;;;;;;;;;6799204;26;20355;-78
2024/04/10 18:00:45;;;;;;;2.08;0.63;;;;;;;;;;6788466;26;20551;-79
2024/04/10 18:03:51;;;;;;;0.82;0.55;;;;;;;;;;6797787;26;20013;-79
2024/04/10 18:06:51;;;;;;;1.05;0.60;;;;;;;;;;6781198;26;20080;-79
2024/04/10 18:09:51;;;;;;;1.87;0.90;;;;;;;;;;6764752;26;20002;-78
2024/04/10 18:12:52;;;;;;;1.10;0.63;;;;;;;;;;6776999;26;20443;-78
2024/04/10 18:15:56;;;;;;;0.80;0.80;;;;;;;;;;6767631;26;20466;-78
2024/04/10 18:18:56;;;;;;;0.50;0.50;;;;;;;;;;6771160;26;19998;-78
2024/04/10 18:21:56;;;;;;;0.88;0.80;;;;;;;;;;6786529;26;20006;-78